Milford, CT

10:56 PM EDT on September 15, 2014 (GMT -0400)
Cedarhurst | Change Station
CLOSE
Current Station
Personal Weather Station
Location: Milford, CT
Elevation: 89 ft
Nearby Weather Stations

Elev 89 ft 41.24 °N, 73.05 °W | Updated 17 seconds ago

Partly Cloudy
Partly Cloudy
53.4 °F
Feels Like 53.4 °F
N
0.0
Wind Variable Wind from NNE
Gusts 25.3 mph

Today
High -- | Low -- °F
--% Chance of Precip.
Yesterday
High -- | Low -- °F
Precip. -- in
6:32 AM 7:01 PM
Waning Gibbous, 50% visible
Pressure 30.10 in
Visibility 10.0 miles
Clouds Clear
Dew Point 50 °F
Humidity 89%
Rainfall 0.32 in
Snow Depth Not available.
UV 0 out of 12
Pollen 2.90 out of 12
Ozone Good
PM2.5 Good
Flu Activity Not available.
METAR KBDR 160152Z AUTO 19006KT 10SM CLR 18/11 A3010 RMK AO2 SLP192 T01830106

More Conditions Fewer Conditions

Pressure 30.10 in
Visibility 10.0 miles
Clouds Clear
Dew Point 50 °F
Humidity 89%
Rainfall 0.32 in
Snow Depth Not available.
UV 0 out of 12
Pollen 2.90 out of 12
Ozone Good
PM2.5 Good
Flu Activity Not available.
METAR KBDR 160152Z AUTO 19006KT 10SM CLR 18/11 A3010 RMK AO2 SLP192 T01830106

More Conditions Fewer Conditions

10-Day Weather Forecast

Almanac

Astronomy

Sep. 15, 2014 Rise Set
Actual Time 6:32 AM EDT 7:01 PM EDT
Civil Twilight 6:04 AM EDT 7:29 PM EDT
Nautical Twilight 5:32 AM EDT 8:01 PM EDT
Astronomical Twilight 4:58 AM EDT 8:35 PM EDT
Moon 11:38 PM EDT (9/15) 1:33 PM EDT (9/15)
Length of Visible Light 13h 24m
Length of Day
12h 28m
Tomorrow will be 2m 43s shorter.
Waning Gibbous, 50% of the Moon is Illuminated
Today
Waning Gibbous
Sep 24
New
Oct 1
First Quarter
Oct 8
Full
Oct 15
Last Quarter

Today's Extremes

State Highs State Lows

Community

WunderPhotos

Upload Photos

1,753,676 photos uploaded!

Nearby

Air Quality

  Air Quality AQ Index Pollutant
Yesterday Good
OZONE
Yesterday Good
PM2.5
Current Good
OZONE
Current Good
PM2.5
Tuesday Good
OZONE
Tuesday Good
PM2.5

Snow Depth

Station Depth Elevation
No new snow has been reported.

Earthquake Activity

City Distance Mag. Time & Date
No recent earthquake activity has been reported nearby.
Minimum magnitude displayed is 2.5.

Coastal Water Temperatures

Place Temperature
Bridgeport, CT 70.0 °F

Nearby Weather Stations